createdAt,value
2017-10-22T00:01:20.451Z,3.03
2017-10-22T00:03:47.068Z,2.20
2017-10-22T00:06:13.686Z,3.07
2017-10-22T00:08:40.332Z,2.03
2017-10-22T00:11:06.971Z,2.47
2017-10-22T00:13:33.599Z,2.30
2017-10-22T00:16:00.216Z,3.10
2017-10-22T00:18:26.855Z,2.90
2017-10-22T00:20:53.490Z,2.50
2017-10-22T00:23:20.103Z,3.10
2017-10-22T00:25:46.747Z,2.70
2017-10-22T00:28:13.354Z,2.23
2017-10-22T00:30:39.981Z,1.80
2017-10-22T00:33:06.578Z,1.97
2017-10-22T00:35:33.230Z,2.10
2017-10-22T00:37:59.854Z,3.10
2017-10-22T00:40:26.465Z,2.07
2017-10-22T00:42:53.097Z,1.67
2017-10-22T00:45:19.710Z,1.90
2017-10-22T00:47:46.337Z,3.63
2017-10-22T00:50:12.976Z,1.80
2017-10-22T00:52:39.610Z,2.00
2017-10-22T00:55:06.215Z,1.70
2017-10-22T00:57:32.826Z,2.23
2017-10-22T00:59:59.451Z,2.10
2017-10-22T01:02:26.080Z,3.23
2017-10-22T01:04:52.699Z,1.80
2017-10-22T01:07:19.320Z,1.83
2017-10-22T01:09:45.958Z,2.00
2017-10-22T01:12:12.579Z,1.70
2017-10-22T01:14:39.210Z,3.30
2017-10-22T01:17:05.850Z,3.70
2017-10-22T01:19:32.474Z,3.03
2017-10-22T01:21:59.075Z,1.90
2017-10-22T01:24:25.711Z,2.20
2017-10-22T01:26:52.332Z,2.10
2017-10-22T01:29:18.948Z,2.50
2017-10-22T01:31:45.587Z,2.53
2017-10-22T01:34:12.231Z,2.40
2017-10-22T01:36:38.855Z,2.50
2017-10-22T01:39:05.472Z,1.70
2017-10-22T01:41:32.108Z,1.90
2017-10-22T01:43:58.718Z,1.90
2017-10-22T01:46:25.361Z,2.57
2017-10-22T01:48:51.967Z,2.40
2017-10-22T01:51:18.578Z,1.77
2017-10-22T01:53:45.219Z,2.10
2017-10-22T01:56:11.829Z,2.63
2017-10-22T01:58:38.494Z,2.00
2017-10-22T02:01:05.132Z,1.83
2017-10-22T02:03:31.767Z,2.33
2017-10-22T02:05:58.414Z,2.43
2017-10-22T02:08:25.047Z,2.23
2017-10-22T02:10:52.353Z,3.60
2017-10-22T02:13:18.994Z,2.13
2017-10-22T02:15:45.614Z,2.30
2017-10-22T02:18:12.252Z,2.07
2017-10-22T02:20:38.878Z,2.20
2017-10-22T02:23:05.511Z,3.00
2017-10-22T02:25:32.130Z,2.03
2017-10-22T02:27:58.754Z,1.93
2017-10-22T02:30:25.394Z,3.57
2017-10-22T02:32:52.030Z,1.90
2017-10-22T02:35:18.672Z,2.67
2017-10-22T02:37:45.383Z,1.60
2017-10-22T02:40:12.349Z,2.03
2017-10-22T02:42:38.956Z,4.10
2017-10-22T02:45:05.556Z,2.27
2017-10-22T02:47:32.207Z,3.03
2017-10-22T02:49:58.815Z,3.00
2017-10-22T02:52:25.454Z,2.10
2017-10-22T02:54:52.084Z,2.80
2017-10-22T02:57:18.717Z,2.67
2017-10-22T02:59:45.340Z,3.00
2017-10-22T03:02:11.963Z,2.30
2017-10-22T03:04:38.615Z,2.87
2017-10-22T03:07:05.227Z,2.17
2017-10-22T03:09:31.859Z,3.10
2017-10-22T03:11:58.483Z,2.83
2017-10-22T03:14:25.110Z,2.23
2017-10-22T03:16:52.607Z,2.23
2017-10-22T03:19:19.650Z,2.33
2017-10-22T03:21:46.278Z,3.67
2017-10-22T03:24:12.888Z,2.00
2017-10-22T03:26:39.519Z,1.80
2017-10-22T03:29:06.155Z,2.00
2017-10-22T03:31:32.787Z,4.60
2017-10-22T03:33:59.402Z,2.20
2017-10-22T03:36:26.050Z,2.70
2017-10-22T03:38:52.663Z,2.30
2017-10-22T03:41:19.322Z,2.10
2017-10-22T03:43:45.945Z,3.10
2017-10-22T03:46:12.567Z,3.70
2017-10-22T03:48:39.193Z,3.57
2017-10-22T03:51:05.808Z,2.17
2017-10-22T03:53:32.442Z,2.70
2017-10-22T03:55:59.078Z,2.90
2017-10-22T03:58:25.739Z,3.10
2017-10-22T04:00:52.405Z,4.90
2017-10-22T04:03:19.010Z,3.30
2017-10-22T04:05:45.664Z,3.30
2017-10-22T04:08:12.278Z,3.80
2017-10-22T04:10:38.895Z,3.00
2017-10-22T04:13:05.532Z,2.77
2017-10-22T04:15:32.158Z,2.97
2017-10-22T04:17:58.770Z,3.27
2017-10-22T04:20:25.403Z,3.50
2017-10-22T04:22:52.042Z,3.10
2017-10-22T04:25:18.698Z,5.53
2017-10-22T04:27:45.310Z,5.53
2017-10-22T04:30:11.917Z,3.83
2017-10-22T04:32:38.567Z,4.50
2017-10-22T04:35:05.193Z,8.47
2017-10-22T04:37:31.823Z,8.60
2017-10-22T04:39:58.469Z,7.40
2017-10-22T04:42:25.075Z,5.87
2017-10-22T04:44:51.715Z,3.50
2017-10-22T04:47:18.326Z,2.80
2017-10-22T04:49:45.009Z,2.10
2017-10-22T04:52:11.646Z,2.73
2017-10-22T04:54:38.278Z,2.97
2017-10-22T04:57:04.876Z,1.87
2017-10-22T04:59:31.513Z,2.50
2017-10-22T05:01:58.128Z,3.30
2017-10-22T05:04:24.775Z,3.13
2017-10-22T05:06:51.394Z,3.23
2017-10-22T05:09:18.046Z,2.67
2017-10-22T05:11:44.723Z,2.95
2017-10-22T05:14:11.330Z,2.90
2017-10-22T05:16:37.950Z,3.17
2017-10-22T05:19:04.576Z,3.80
2017-10-22T05:21:31.217Z,4.10
2017-10-22T05:23:57.850Z,4.55
2017-10-22T05:26:24.467Z,4.97
2017-10-22T05:28:51.106Z,5.47
2017-10-22T05:31:17.744Z,5.60
2017-10-22T05:33:44.384Z,5.70
2017-10-22T05:36:11.018Z,4.93
2017-10-22T05:38:37.634Z,4.67
2017-10-22T05:41:04.252Z,4.23
2017-10-22T05:43:30.862Z,3.30
2017-10-22T05:45:57.531Z,3.00
2017-10-22T05:48:24.175Z,3.90
2017-10-22T05:50:50.791Z,2.53
2017-10-22T05:53:17.418Z,2.70
2017-10-22T05:55:44.040Z,1.87
2017-10-22T05:58:10.644Z,2.20
2017-10-22T06:00:37.283Z,2.00
2017-10-22T06:03:03.885Z,2.07
2017-10-22T06:05:30.507Z,1.90
2017-10-22T06:07:57.135Z,3.10
2017-10-22T06:10:23.735Z,1.93
2017-10-22T06:12:50.366Z,3.27
2017-10-22T06:15:17.010Z,3.73
2017-10-22T06:17:43.642Z,2.80
2017-10-22T06:20:10.251Z,2.33
2017-10-22T06:22:36.873Z,2.53
2017-10-22T06:25:03.510Z,2.50
2017-10-22T06:27:30.119Z,4.00
2017-10-22T06:29:56.740Z,3.13
2017-10-22T06:32:23.404Z,3.27
2017-10-22T06:34:50.040Z,3.13
2017-10-22T06:37:17.602Z,1.60
2017-10-22T06:39:44.219Z,2.60
2017-10-22T06:42:10.859Z,1.97
2017-10-22T06:44:37.487Z,2.83
2017-10-22T06:47:04.124Z,2.30
2017-10-22T06:49:30.759Z,2.30
2017-10-22T06:51:57.390Z,3.50
2017-10-22T06:54:24.019Z,2.80
2017-10-22T06:56:50.659Z,1.47
2017-10-22T06:59:17.306Z,3.37
2017-10-22T07:01:44.003Z,1.80
2017-10-22T07:04:10.607Z,2.40
2017-10-22T07:06:37.247Z,2.23
2017-10-22T07:09:03.884Z,2.47
2017-10-22T07:11:30.521Z,2.53
2017-10-22T07:13:57.139Z,2.80
2017-10-22T07:16:23.795Z,2.60
2017-10-22T07:18:50.397Z,2.83
2017-10-22T07:21:17.043Z,2.90
2017-10-22T07:23:43.680Z,2.53
2017-10-22T07:26:10.292Z,2.77
2017-10-22T07:28:36.936Z,2.10
2017-10-22T07:31:03.558Z,2.93
2017-10-22T07:33:30.194Z,4.12
2017-10-22T07:35:56.819Z,3.07
2017-10-22T07:38:23.431Z,1.87
2017-10-22T07:40:50.041Z,2.67
2017-10-22T07:43:16.664Z,2.77
2017-10-22T07:45:43.261Z,2.57
2017-10-22T07:48:09.900Z,3.20
2017-10-22T07:50:36.520Z,2.00
2017-10-22T07:53:03.170Z,2.10
2017-10-22T07:55:29.799Z,2.47
2017-10-22T07:57:56.437Z,2.43
2017-10-22T08:00:23.089Z,2.23
2017-10-22T08:02:49.728Z,2.73
2017-10-22T08:05:16.335Z,1.97
2017-10-22T08:07:43.435Z,2.10
2017-10-22T08:10:10.059Z,2.77
2017-10-22T08:12:36.674Z,2.67
2017-10-22T08:15:04.095Z,2.80
2017-10-22T08:17:30.725Z,2.20
2017-10-22T08:19:57.350Z,2.00
2017-10-22T08:22:23.980Z,3.07
2017-10-22T08:24:50.592Z,1.60
2017-10-22T08:27:17.225Z,3.10
2017-10-22T08:29:43.838Z,1.93
2017-10-22T08:32:10.524Z,2.40
2017-10-22T08:34:37.179Z,2.63
2017-10-22T08:37:03.816Z,2.63
2017-10-22T08:39:30.452Z,2.10
2017-10-22T08:41:57.075Z,2.17
2017-10-22T08:44:23.702Z,2.40
2017-10-22T08:46:50.362Z,2.87
2017-10-22T08:49:17.006Z,1.80
2017-10-22T08:51:43.655Z,2.00
2017-10-22T08:54:10.309Z,2.97
2017-10-22T08:56:36.942Z,1.73
2017-10-22T08:59:03.568Z,1.53
2017-10-22T09:01:30.200Z,3.17
2017-10-22T09:03:56.816Z,2.00
2017-10-22T09:06:23.449Z,2.60
2017-10-22T09:08:50.067Z,2.10
2017-10-22T09:11:16.694Z,1.80
2017-10-22T09:13:43.326Z,2.60
2017-10-22T09:16:09.944Z,2.03
2017-10-22T09:18:36.581Z,2.00
2017-10-22T09:21:03.222Z,1.90
2017-10-22T09:23:29.859Z,2.30
2017-10-22T09:25:56.476Z,2.40
2017-10-22T09:28:23.116Z,1.87
2017-10-22T09:30:49.753Z,1.60
2017-10-22T09:33:16.352Z,2.23
2017-10-22T09:35:42.974Z,1.80
2017-10-22T09:38:09.615Z,2.20
2017-10-22T09:40:36.279Z,2.50
2017-10-22T09:43:02.929Z,3.20
2017-10-22T09:45:29.546Z,2.47
2017-10-22T09:47:56.176Z,3.00
2017-10-22T09:50:22.790Z,2.07
2017-10-22T09:52:49.427Z,2.17
2017-10-22T09:55:16.051Z,3.17
2017-10-22T09:57:42.666Z,2.80
2017-10-22T10:00:09.310Z,2.37
2017-10-22T10:02:35.940Z,3.30
2017-10-22T10:05:02.552Z,3.07
2017-10-22T10:07:29.174Z,4.63
2017-10-22T10:09:55.790Z,3.37
2017-10-22T10:12:22.437Z,3.07
2017-10-22T10:14:49.058Z,3.20
2017-10-22T10:17:15.701Z,2.83
2017-10-22T10:19:42.306Z,2.90
2017-10-22T10:22:08.942Z,3.53
2017-10-22T10:24:35.574Z,3.33
2017-10-22T10:27:02.181Z,3.33
2017-10-22T10:29:28.814Z,3.10
2017-10-22T10:31:55.437Z,3.27
2017-10-22T10:34:22.082Z,3.90
2017-10-22T10:36:49.190Z,3.93
2017-10-22T10:39:15.836Z,2.83
2017-10-22T10:41:42.456Z,3.10
2017-10-22T10:44:09.096Z,3.43
2017-10-22T10:46:35.708Z,2.90
2017-10-22T10:49:02.340Z,3.00
2017-10-22T10:51:29.026Z,3.40
2017-10-22T10:53:55.641Z,2.97
2017-10-22T10:56:22.249Z,3.73
2017-10-22T10:58:48.895Z,3.27
2017-10-22T11:01:15.511Z,2.83
2017-10-22T11:03:42.149Z,3.10
2017-10-22T11:06:08.758Z,3.60
2017-10-22T11:08:35.386Z,3.60
2017-10-22T11:11:02.096Z,3.10
2017-10-22T11:13:28.722Z,2.93
2017-10-22T11:15:55.382Z,2.57
2017-10-22T11:18:22.009Z,2.80
2017-10-22T11:20:48.607Z,2.53
2017-10-22T11:23:15.248Z,3.10
2017-10-22T11:25:41.884Z,2.77
2017-10-22T11:28:08.512Z,3.77
2017-10-22T11:30:35.131Z,3.97
2017-10-22T11:33:01.758Z,2.90
2017-10-22T11:35:28.397Z,3.37
2017-10-22T11:37:55.000Z,3.47
2017-10-22T11:40:21.673Z,4.20
2017-10-22T11:42:48.299Z,5.03
2017-10-22T11:45:14.925Z,3.53
2017-10-22T11:47:41.571Z,7.50
2017-10-22T11:50:08.187Z,3.20
2017-10-22T11:52:34.807Z,3.20
2017-10-22T11:55:01.423Z,3.57
2017-10-22T11:57:28.071Z,5.20
2017-10-22T11:59:54.745Z,3.90
2017-10-22T12:02:21.386Z,3.47
2017-10-22T12:04:48.019Z,3.83
2017-10-22T12:07:14.651Z,3.10
2017-10-22T12:09:41.297Z,4.40
2017-10-22T12:12:07.948Z,4.63
2017-10-22T12:14:34.882Z,4.40
2017-10-22T12:17:01.505Z,4.63
2017-10-22T12:19:28.124Z,4.00
2017-10-22T12:21:54.776Z,3.00
2017-10-22T12:24:21.399Z,3.40
2017-10-22T12:26:48.027Z,3.30
2017-10-22T12:29:14.658Z,4.50
2017-10-22T12:31:41.290Z,5.30
2017-10-22T12:34:07.907Z,3.60
2017-10-22T12:36:34.548Z,4.20
2017-10-22T12:39:01.216Z,3.53
2017-10-22T12:41:27.851Z,5.30
2017-10-22T12:43:54.489Z,4.63
2017-10-22T12:46:21.133Z,4.53
2017-10-22T12:48:47.760Z,5.07
2017-10-22T12:51:14.399Z,4.90
2017-10-22T12:53:41.008Z,6.13
2017-10-22T12:56:07.756Z,6.43
2017-10-22T12:58:34.397Z,5.77
2017-10-22T13:01:01.063Z,6.03
2017-10-22T13:03:27.698Z,5.80
2017-10-22T13:05:54.335Z,5.37
2017-10-22T13:08:20.956Z,5.73
2017-10-22T13:10:47.599Z,6.67
2017-10-22T13:13:14.243Z,5.33
2017-10-22T13:15:40.867Z,5.57
2017-10-22T13:18:07.520Z,5.50
2017-10-22T13:20:34.128Z,7.50
2017-10-22T13:23:00.798Z,7.13
2017-10-22T13:25:27.431Z,5.33
2017-10-22T13:27:54.079Z,6.17
2017-10-22T13:30:20.686Z,7.40
2017-10-22T13:32:47.331Z,6.90
2017-10-22T13:35:13.943Z,5.93
2017-10-22T13:37:40.576Z,5.77
2017-10-22T13:40:07.198Z,6.07
2017-10-22T13:42:33.839Z,6.17
2017-10-22T13:45:00.491Z,5.27
2017-10-22T13:47:27.135Z,4.57
2017-10-22T13:49:53.751Z,5.77
2017-10-22T13:52:20.366Z,4.83
2017-10-22T13:54:46.999Z,5.50
2017-10-22T13:57:13.642Z,4.90
2017-10-22T13:59:40.273Z,6.47
2017-10-22T14:02:06.928Z,6.77
2017-10-22T14:04:33.579Z,9.03
2017-10-22T14:07:00.202Z,5.40
2017-10-22T14:09:26.831Z,5.10
2017-10-22T14:11:53.494Z,4.87
2017-10-22T14:14:20.135Z,4.10
2017-10-22T14:16:46.768Z,4.80
2017-10-22T14:19:13.378Z,3.53
2017-10-22T14:21:40.067Z,4.83
2017-10-22T14:24:06.682Z,5.20
2017-10-22T14:26:33.304Z,6.87
2017-10-22T14:28:59.979Z,5.03
2017-10-22T14:31:26.588Z,4.63
2017-10-22T14:33:53.214Z,4.97
2017-10-22T14:36:19.828Z,4.90
2017-10-22T14:38:46.494Z,5.20
2017-10-22T14:41:13.091Z,4.80
2017-10-22T14:43:39.751Z,5.00
2017-10-22T14:46:06.376Z,5.90
2017-10-22T14:48:33.002Z,5.03
2017-10-22T14:50:59.605Z,6.57
2017-10-22T14:53:26.290Z,6.10
2017-10-22T14:55:52.930Z,6.40
2017-10-22T14:58:19.576Z,7.50
2017-10-22T15:00:46.210Z,7.70
2017-10-22T15:03:12.819Z,7.70
2017-10-22T15:05:39.484Z,6.40
2017-10-22T15:08:06.112Z,7.40
2017-10-22T15:10:32.738Z,6.37
2017-10-22T15:12:59.367Z,6.43
2017-10-22T15:15:26.010Z,4.70
2017-10-22T15:17:53.503Z,7.13
2017-10-22T15:20:20.108Z,6.37
2017-10-22T15:22:46.748Z,5.57
2017-10-22T15:25:13.390Z,6.07
2017-10-22T15:27:40.007Z,4.30
2017-10-22T15:30:06.644Z,5.77
2017-10-22T15:32:33.289Z,5.37
2017-10-22T15:35:00.231Z,6.47
2017-10-22T15:37:26.841Z,5.03
2017-10-22T15:39:53.482Z,5.20
2017-10-22T15:42:20.131Z,4.87
2017-10-22T15:44:46.789Z,5.20
2017-10-22T15:47:13.420Z,4.97
2017-10-22T15:49:40.061Z,5.63
2017-10-22T15:52:06.712Z,7.10
2017-10-22T15:54:33.339Z,5.63
2017-10-22T15:56:59.947Z,5.17
2017-10-22T15:59:26.554Z,5.93
2017-10-22T16:01:53.191Z,4.33
2017-10-22T16:04:19.830Z,4.70
2017-10-22T16:06:46.475Z,5.23
2017-10-22T16:09:13.076Z,5.03
2017-10-22T16:11:39.699Z,5.27
2017-10-22T16:14:06.852Z,5.03
2017-10-22T16:16:33.459Z,5.07
2017-10-22T16:19:00.492Z,4.60
2017-10-22T16:21:27.117Z,7.67
2017-10-22T16:23:53.750Z,4.53
2017-10-22T16:26:20.383Z,4.73
2017-10-22T16:28:47.022Z,5.10
2017-10-22T16:31:13.640Z,4.60
2017-10-22T16:33:40.254Z,5.50
2017-10-22T16:36:06.930Z,10.07
2017-10-22T16:38:33.590Z,5.17
2017-10-22T16:41:00.226Z,5.07
2017-10-22T16:43:26.851Z,5.37
2017-10-22T16:45:53.501Z,4.70
2017-10-22T16:48:20.119Z,3.70
2017-10-22T16:50:46.746Z,4.70
2017-10-22T16:53:13.392Z,4.63
2017-10-22T16:55:40.012Z,4.23
2017-10-22T16:58:06.632Z,4.80
2017-10-22T17:00:33.291Z,6.67
2017-10-22T17:02:59.947Z,4.20
2017-10-22T17:05:26.879Z,4.30
2017-10-22T17:07:53.558Z,3.63
2017-10-22T17:10:20.209Z,3.97
2017-10-22T17:12:46.817Z,3.77
2017-10-22T17:15:14.271Z,4.63
2017-10-22T17:17:40.925Z,3.90
2017-10-22T17:20:07.550Z,3.80
2017-10-22T17:22:35.048Z,5.13
2017-10-22T17:25:01.685Z,3.97
2017-10-22T17:27:28.327Z,3.77
2017-10-22T17:29:54.953Z,4.23
2017-10-22T17:32:21.590Z,4.03
2017-10-22T17:34:48.202Z,3.50
2017-10-22T17:37:14.879Z,4.30
2017-10-22T17:39:41.532Z,3.10
2017-10-22T17:42:08.151Z,3.93
2017-10-22T17:44:34.842Z,3.57
2017-10-22T17:47:01.452Z,3.40
2017-10-22T17:49:28.105Z,3.90
2017-10-22T17:51:54.754Z,3.70
2017-10-22T17:54:21.363Z,4.20
2017-10-22T17:56:48.027Z,3.83
2017-10-22T17:59:14.667Z,4.57
2017-10-22T18:01:41.284Z,3.97
2017-10-22T18:04:07.936Z,3.50
2017-10-22T18:06:34.563Z,3.67
2017-10-22T18:09:01.232Z,4.67
2017-10-22T18:11:27.848Z,4.03
2017-10-22T18:13:54.494Z,4.50
2017-10-22T18:16:21.155Z,4.13
2017-10-22T18:18:48.658Z,4.53
2017-10-22T18:21:15.894Z,4.23
2017-10-22T18:23:42.498Z,4.40
2017-10-22T18:26:09.154Z,5.20
2017-10-22T18:28:35.800Z,5.20
2017-10-22T18:31:02.407Z,3.57
2017-10-22T18:33:29.055Z,3.73
2017-10-22T18:35:55.685Z,4.70
2017-10-22T18:38:22.297Z,6.40
2017-10-22T18:40:48.956Z,4.13
2017-10-22T18:43:15.609Z,4.87
2017-10-22T18:45:42.236Z,4.50
2017-10-22T18:48:08.868Z,4.77
2017-10-22T18:50:35.527Z,4.53
2017-10-22T18:53:02.141Z,4.13
2017-10-22T18:55:28.782Z,4.63
2017-10-22T18:57:56.300Z,5.07
2017-10-22T19:00:22.937Z,4.10
2017-10-22T19:02:49.578Z,4.53
2017-10-22T19:05:16.201Z,4.37
2017-10-22T19:07:42.864Z,3.90
2017-10-22T19:10:09.490Z,4.10
2017-10-22T19:12:37.017Z,3.80
2017-10-22T19:15:03.676Z,3.90
2017-10-22T19:17:30.305Z,3.80
2017-10-22T19:19:56.996Z,4.27
2017-10-22T19:22:23.629Z,4.10
2017-10-22T19:24:50.251Z,3.70
2017-10-22T19:27:16.892Z,4.80
2017-10-22T19:29:43.542Z,5.90
2017-10-22T19:32:10.172Z,4.20
2017-10-22T19:34:36.797Z,5.50
2017-10-22T19:37:03.442Z,4.10
2017-10-22T19:39:30.112Z,5.60
2017-10-22T19:41:56.742Z,5.03
2017-10-22T19:44:23.385Z,4.20
2017-10-22T19:46:50.050Z,5.40
2017-10-22T19:49:17.525Z,6.27
2017-10-22T19:51:44.145Z,5.03
2017-10-22T19:54:10.817Z,5.90
2017-10-22T19:56:37.450Z,7.00
2017-10-22T19:59:04.080Z,4.70
2017-10-22T20:01:30.726Z,5.10
2017-10-22T20:03:57.396Z,4.60
2017-10-22T20:06:24.039Z,4.70
2017-10-22T20:08:50.683Z,5.40
2017-10-22T20:11:17.295Z,4.67
2017-10-22T20:13:43.940Z,5.70
2017-10-22T20:16:10.564Z,4.97
2017-10-22T20:18:37.230Z,4.63
2017-10-22T20:21:03.879Z,5.47
2017-10-22T20:23:30.500Z,4.90
2017-10-22T20:25:57.120Z,5.80
2017-10-22T20:28:23.772Z,4.00
2017-10-22T20:30:50.407Z,4.50
2017-10-22T20:33:17.028Z,4.77
2017-10-22T20:35:43.709Z,4.77
2017-10-22T20:38:10.366Z,3.77
2017-10-22T20:40:36.978Z,4.10
2017-10-22T20:43:03.628Z,5.73
2017-10-22T20:45:30.288Z,5.33
2017-10-22T20:47:56.906Z,4.00
2017-10-22T20:50:23.549Z,4.67
2017-10-22T20:52:50.199Z,3.80
2017-10-22T20:55:16.847Z,4.30
2017-10-22T20:57:43.498Z,5.93
2017-10-22T21:00:10.167Z,3.77
2017-10-22T21:02:36.776Z,4.67
2017-10-22T21:05:03.423Z,4.40
2017-10-22T21:07:30.081Z,4.33
2017-10-22T21:09:56.714Z,5.43
2017-10-22T21:12:23.347Z,4.40
2017-10-22T21:14:50.001Z,4.80
2017-10-22T21:17:16.636Z,2.63
2017-10-22T21:19:43.292Z,4.93
2017-10-22T21:22:09.940Z,3.10
2017-10-22T21:24:36.607Z,6.00
2017-10-22T21:27:03.228Z,2.77
2017-10-22T21:29:29.844Z,4.07
2017-10-22T21:31:56.508Z,3.90
2017-10-22T21:34:23.136Z,3.83
2017-10-22T21:36:49.803Z,3.60
2017-10-22T21:39:16.420Z,3.40
2017-10-22T21:41:43.052Z,4.07
2017-10-22T21:44:10.956Z,3.90
2017-10-22T21:46:37.643Z,4.60
2017-10-22T21:49:04.892Z,3.53
2017-10-22T21:51:32.585Z,3.40
2017-10-22T21:53:59.205Z,3.57
2017-10-22T21:56:25.866Z,3.83
2017-10-22T21:58:52.497Z,3.03
2017-10-22T22:01:19.157Z,4.40
2017-10-22T22:03:45.812Z,4.40
2017-10-22T22:06:12.442Z,4.33
2017-10-22T22:08:39.068Z,4.00
2017-10-22T22:11:05.717Z,4.90
2017-10-22T22:13:32.358Z,3.37
2017-10-22T22:15:59.004Z,4.77
2017-10-22T22:18:25.639Z,3.90
2017-10-22T22:20:52.260Z,4.03
2017-10-22T22:23:18.881Z,3.80
2017-10-22T22:25:45.552Z,3.90
2017-10-22T22:28:12.174Z,3.70
2017-10-22T22:30:38.779Z,6.20
2017-10-22T22:33:05.701Z,3.40
2017-10-22T22:35:32.327Z,4.80
2017-10-22T22:37:58.970Z,3.03
2017-10-22T22:40:25.595Z,3.40
2017-10-22T22:42:52.248Z,4.47
2017-10-22T22:45:18.846Z,3.70
2017-10-22T22:47:45.500Z,2.90
2017-10-22T22:50:12.144Z,4.80
2017-10-22T22:52:38.771Z,2.73
2017-10-22T22:55:05.415Z,5.27
2017-10-22T22:57:32.035Z,3.10
2017-10-22T22:59:58.683Z,3.30
2017-10-22T23:02:25.329Z,4.43
2017-10-22T23:04:51.958Z,3.13
2017-10-22T23:07:18.606Z,2.90
2017-10-22T23:09:45.253Z,3.13
2017-10-22T23:12:12.811Z,3.50
2017-10-22T23:14:39.453Z,2.60
2017-10-22T23:17:06.108Z,3.63
2017-10-22T23:19:32.742Z,3.20
2017-10-22T23:21:59.371Z,2.80
2017-10-22T23:24:26.001Z,3.10
2017-10-22T23:26:52.644Z,4.50
2017-10-22T23:29:19.257Z,5.73
2017-10-22T23:31:45.867Z,3.33
2017-10-22T23:34:12.521Z,2.53
2017-10-22T23:36:39.139Z,4.40
2017-10-22T23:39:05.793Z,4.00
2017-10-22T23:41:32.415Z,4.97
2017-10-22T23:43:59.075Z,3.87
2017-10-22T23:46:25.760Z,5.53
2017-10-22T23:48:52.412Z,4.60
2017-10-22T23:51:19.032Z,4.40
2017-10-22T23:53:45.650Z,3.13
2017-10-22T23:56:12.291Z,4.27
2017-10-22T23:58:38.927Z,4.93
